Time;durP1;ratioP1;P1;durP2;ratioP2;P2;SDS_P1;SDS_P2;PMS_P1;PMS_P2;Temp;Humidity;BMP_temperature;BMP_pressure;BME280_temperature;BME280_humidity;BME280_pressure;Samples;Min_cycle;Max_cycle;Signal;HPM_P1;HPM_P2
2022/04/02 00:01:43;;;;;;;0.95;0.95;;;;;;;6.93;84.51;96941.45;1735397;82;21311;-63
2022/04/02 00:04:11;;;;;;;1.10;1.02;;;;;;;6.91;84.38;96943.46;1735497;82;21552;-63
2022/04/02 00:06:38;;;;;;;1.12;1.02;;;;;;;6.88;84.38;96943.91;1724578;82;21566;-63
2022/04/02 00:09:07;;;;;;;0.90;0.90;;;;;;;6.86;84.40;96944.59;1735621;82;21005;-63
2022/04/02 00:11:34;;;;;;;0.95;0.82;;;;;;;6.84;84.37;96945.32;1735351;82;20949;-64
2022/04/02 00:14:01;;;;;;;1.67;1.00;;;;;;;6.83;84.49;96933.94;1735964;82;21259;-63
2022/04/02 00:16:29;;;;;;;0.90;0.90;;;;;;;6.82;84.50;96919.12;1733067;81;20919;-63
2022/04/02 00:18:57;;;;;;;0.90;0.90;;;;;;;6.81;84.40;96917.48;1727843;82;20947;-65
2022/04/02 00:21:24;;;;;;;1.10;1.00;;;;;;;6.78;84.49;96915.25;1727558;82;20998;-62
2022/04/02 00:23:53;;;;;;;0.95;0.85;;;;;;;6.77;84.54;96923.40;1727577;82;21497;-63
2022/04/02 00:26:20;;;;;;;0.70;0.70;;;;;;;6.77;84.64;96922.08;1727722;82;21159;-64
2022/04/02 00:28:49;;;;;;;1.00;0.90;;;;;;;6.78;84.68;96909.15;1727686;82;20927;-64
2022/04/02 00:31:17;;;;;;;0.90;0.90;;;;;;;6.78;84.62;96902.03;1728185;82;21037;-62
2022/04/02 00:33:46;;;;;;;1.25;1.02;;;;;;;6.76;84.62;96907.23;1727826;82;21091;-62
2022/04/02 00:36:14;;;;;;;0.70;0.70;;;;;;;6.80;84.75;96896.56;1727192;82;20982;-64
2022/04/02 00:38:42;;;;;;;1.85;0.80;;;;;;;6.84;84.90;96901.72;1727182;82;20978;-64
2022/04/02 00:41:09;;;;;;;0.60;0.60;;;;;;;6.84;84.84;96900.39;1727851;82;21011;-63
2022/04/02 00:43:41;;;;;;;0.88;0.80;;;;;;;6.86;84.66;96906.81;1727124;82;21113;-65
2022/04/02 00:46:11;;;;;;;0.72;0.70;;;;;;;6.87;84.77;96901.30;1727985;82;21045;-63
2022/04/02 00:48:39;;;;;;;0.68;0.68;;;;;;;6.86;84.80;96897.03;1724922;82;20978;-61
2022/04/02 00:51:10;;;;;;;0.80;0.80;;;;;;;6.87;84.85;96900.48;1727835;82;22067;-63
2022/04/02 00:53:40;;;;;;;1.17;0.90;;;;;;;6.88;84.95;96895.52;1727946;82;20892;-63
2022/04/02 00:56:08;;;;;;;0.75;0.75;;;;;;;6.88;84.91;96890.23;1727572;82;21631;-62
2022/04/02 00:58:39;;;;;;;0.80;0.78;;;;;;;6.87;84.94;96888.09;1720024;82;21027;-63
2022/04/02 01:01:07;;;;;;;0.70;0.70;;;;;;;6.83;84.86;96889.01;1727840;82;20894;-62
2022/04/02 01:03:36;;;;;;;0.60;0.60;;;;;;;6.86;84.80;96893.06;1727772;82;21264;-63
2022/04/02 01:06:04;;;;;;;2.47;0.82;;;;;;;6.86;84.55;96893.06;1727470;82;20935;-63
2022/04/02 01:08:34;;;;;;;0.70;0.70;;;;;;;6.84;84.44;96889.83;1727820;82;21543;-63
2022/04/02 01:11:01;;;;;;;0.57;0.57;;;;;;;6.79;84.34;96896.25;1727461;82;20995;-64
2022/04/02 01:13:32;;;;;;;0.60;0.60;;;;;;;6.80;84.24;96895.24;1728079;82;21028;-62
2022/04/02 01:16:01;;;;;;;0.78;0.70;;;;;;;6.76;84.12;96894.84;1727791;82;21889;-63
2022/04/02 01:18:30;;;;;;;0.78;0.78;;;;;;;6.73;84.31;96892.61;1727058;82;21017;-63
2022/04/02 01:20:59;;;;;;;0.50;0.50;;;;;;;6.70;84.52;96896.98;1727757;82;21489;-63
2022/04/02 01:23:29;;;;;;;0.68;0.50;;;;;;;6.71;84.58;96901.76;1727292;82;20947;-62
2022/04/02 01:26:00;;;;;;;0.80;0.62;;;;;;;6.74;84.61;96898.20;1727636;82;20953;-63
2022/04/02 01:28:33;;;;;;;0.50;0.50;;;;;;;6.77;84.78;96902.26;1727676;82;21213;-62
2022/04/02 01:31:03;;;;;;;0.53;0.53;;;;;;;6.76;84.48;96897.48;1727156;82;20871;-63
2022/04/02 01:33:30;;;;;;;0.60;0.60;;;;;;;6.75;84.28;96901.66;1727991;82;21061;-62
2022/04/02 01:36:06;;;;;;;0.50;0.50;;;;;;;6.75;84.26;96908.27;1711179;83;20987;-62
2022/04/02 01:38:35;;;;;;;0.60;0.60;;;;;;;6.76;84.19;96911.19;1714556;82;21074;-63
2022/04/02 01:41:03;;;;;;;0.88;0.50;;;;;;;6.72;84.33;96912.64;1727228;82;21784;-63
2022/04/02 01:43:32;;;;;;;0.65;0.57;;;;;;;6.74;84.25;96919.84;1727306;82;21033;-62
2022/04/02 01:45:59;;;;;;;0.60;0.60;;;;;;;6.76;84.14;96927.86;1727258;82;21436;-62
2022/04/02 01:48:29;;;;;;;0.57;0.57;;;;;;;6.77;84.04;96929.50;1727759;82;20938;-65
2022/04/02 01:50:58;;;;;;;0.80;0.80;;;;;;;6.93;83.47;96937.48;1727061;82;20875;-63
2022/04/02 01:53:27;;;;;;;0.60;0.60;;;;;;;6.96;83.17;96941.54;1727739;82;21881;-62
2022/04/02 01:55:54;;;;;;;0.72;0.72;;;;;;;6.98;83.05;96940.31;1727672;82;20930;-65
2022/04/02 01:58:37;;;;;;;0.62;0.62;;;;;;;6.96;83.18;96944.19;1716378;82;21358;-63
2022/04/02 02:01:06;;;;;;;0.62;0.62;;;;;;;6.98;83.00;96944.27;1727646;82;21023;-63
2022/04/02 02:03:34;;;;;;;0.70;0.70;;;;;;;6.95;82.91;96939.41;1725513;82;20953;-62
2022/04/02 02:06:01;;;;;;;0.57;0.57;;;;;;;6.96;83.05;96938.90;1727329;82;21247;-63
2022/04/02 02:08:29;;;;;;;0.50;0.50;;;;;;;7.00;83.29;96932.16;1727528;82;21017;-62
2022/04/02 02:11:00;;;;;;;1.05;0.82;;;;;;;7.01;83.25;96937.25;1727330;82;20926;-64
2022/04/02 02:13:35;;;;;;;0.75;0.72;;;;;;;7.00;83.05;96935.62;1726275;82;20989;-63
2022/04/02 02:16:04;;;;;;;1.65;1.20;;;;;;;7.01;82.92;96937.76;1727146;82;21508;-64
2022/04/02 02:18:35;;;;;;;0.85;0.85;;;;;;;6.99;82.67;96935.84;1753797;81;20986;-63
2022/04/02 02:21:03;;;;;;;0.70;0.70;;;;;;;6.95;82.62;96935.44;1755636;81;20990;-63
2022/04/02 02:23:31;;;;;;;1.25;1.17;;;;;;;6.95;82.63;96943.87;1754940;81;20936;-62
2022/04/02 02:25:59;;;;;;;3.17;1.82;;;;;;;6.94;82.93;96948.34;1755821;81;20922;-63
2022/04/02 02:28:28;;;;;;;1.52;1.42;;;;;;;6.90;83.74;96940.54;1755801;81;20939;-62
2022/04/02 02:30:57;;;;;;;1.32;1.22;;;;;;;6.89;83.23;96941.55;1756277;81;21824;-62
2022/04/02 02:36:11;;;;;;;0.78;0.75;;;;;;;6.87;83.17;96930.37;1755779;81;20995;-62
2022/04/02 02:38:44;;;;;;;1.15;1.15;;;;;;;6.89;83.06;96934.12;1745547;81;20985;-63
2022/04/02 02:41:22;;;;;;;2.98;1.10;;;;;;;6.86;83.18;96927.95;1756089;81;21057;-62
2022/04/02 02:43:52;;;;;;;0.78;0.78;;;;;;;6.84;83.18;96928.14;1755833;81;21280;-63
2022/04/02 02:46:21;;;;;;;1.50;0.90;;;;;;;6.87;83.23;96931.70;1752821;81;21010;-64
2022/04/02 02:48:51;;;;;;;0.98;0.70;;;;;;;6.86;83.20;96933.23;1755616;81;21562;-64
2022/04/02 02:51:19;;;;;;;0.70;0.70;;;;;;;6.84;83.11;96931.60;1755428;81;20903;-62
2022/04/02 02:53:48;;;;;;;0.93;0.90;;;;;;;6.88;82.85;96928.05;1726234;81;20894;-62
2022/04/02 02:56:15;;;;;;;1.00;1.00;;;;;;;6.88;82.74;96928.05;1753897;81;21285;-63
2022/04/02 02:58:42;;;;;;;0.88;0.80;;;;;;;6.87;82.71;96923.77;1756268;81;20946;-62
2022/04/02 03:01:11;;;;;;;0.90;0.90;;;;;;;6.81;82.82;96913.52;1756296;81;20982;-63
2022/04/02 03:03:39;;;;;;;1.00;0.90;;;;;;;6.79;82.82;96919.53;1744207;81;21124;-62
2022/04/02 03:06:08;;;;;;;0.80;0.80;;;;;;;6.78;82.88;96916.57;1754532;81;20939;-61
2022/04/02 03:08:39;;;;;;;1.15;1.05;;;;;;;6.80;82.80;96914.52;1755383;81;21757;-64
2022/04/02 03:11:07;;;;;;;1.00;1.00;;;;;;;6.81;82.82;96920.63;1755607;81;20851;-62
2022/04/02 03:13:38;;;;;;;1.22;1.00;;;;;;;6.83;82.74;96918.58;1748560;81;20985;-65
2022/04/02 03:16:07;;;;;;;0.95;0.95;;;;;;;6.82;83.51;96918.30;1752909;81;21666;-63
2022/04/02 03:18:36;;;;;;;1.30;1.17;;;;;;;6.79;83.04;96916.88;1747564;81;20930;-64
2022/04/02 03:21:05;;;;;;;0.98;0.98;;;;;;;6.74;82.99;96908.77;1754670;81;21236;-65
2022/04/02 03:23:32;;;;;;;0.80;0.80;;;;;;;6.72;83.00;96913.96;1753904;81;20965;-63
2022/04/02 03:26:01;;;;;;;1.27;1.17;;;;;;;6.67;82.96;96917.20;1756899;81;20863;-64
2022/04/02 03:28:31;;;;;;;1.25;1.17;;;;;;;6.65;82.93;96917.11;1756054;81;20909;-63
2022/04/02 03:30:59;;;;;;;1.30;1.20;;;;;;;6.62;83.01;96920.19;1755172;81;20918;-64
2022/04/02 03:33:26;;;;;;;1.30;1.20;;;;;;;6.61;83.11;96923.34;1752574;81;21227;-64
2022/04/02 03:35:54;;;;;;;1.10;1.07;;;;;;;6.60;83.24;96917.73;1755952;81;21491;-64
2022/04/02 03:38:24;;;;;;;1.17;1.10;;;;;;;6.61;83.43;96922.02;1753385;81;20947;-66
2022/04/02 03:40:52;;;;;;;1.15;1.05;;;;;;;6.59;83.56;96929.34;1756600;81;21005;-64
2022/04/02 03:43:21;;;;;;;2.75;1.10;;;;;;;6.61;83.54;96927.80;1753794;81;20926;-65
2022/04/02 03:45:48;;;;;;;0.80;0.80;;;;;;;6.62;83.54;96927.58;1755856;81;21252;-64
2022/04/02 03:48:15;;;;;;;1.30;1.20;;;;;;;6.65;83.39;96925.85;1754416;81;20930;-65
2022/04/02 03:50:43;;;;;;;1.32;1.22;;;;;;;6.61;83.58;96921.20;1755835;80;20939;-65
2022/04/02 03:53:12;;;;;;;0.95;0.95;;;;;;;6.57;83.82;96922.64;1753082;81;21001;-62
2022/04/02 03:55:41;;;;;;;1.10;1.10;;;;;;;6.60;83.82;96924.84;1755699;81;21190;-63
2022/04/02 03:58:10;;;;;;;0.78;0.78;;;;;;;6.59;83.54;96929.84;1754486;81;21249;-63
2022/04/02 04:00:38;;;;;;;1.00;1.00;;;;;;;6.59;83.35;96924.56;1755291;81;20918;-62
2022/04/02 04:03:10;;;;;;;0.68;0.68;;;;;;;6.57;83.20;96929.25;1754002;81;20894;-63
2022/04/02 04:05:43;;;;;;;0.60;0.60;;;;;;;6.56;83.16;96925.78;1755699;81;21057;-66
2022/04/02 04:08:10;;;;;;;0.50;0.50;;;;;;;6.56;82.98;96932.39;1755594;81;20997;-64
2022/04/02 04:10:41;;;;;;;0.40;0.40;;;;;;;6.57;82.95;96930.56;1746508;81;21445;-63
2022/04/02 04:13:09;;;;;;;0.40;0.40;;;;;;;6.56;82.80;96924.47;1752000;81;20930;-64
2022/04/02 04:15:38;;;;;;;0.30;0.30;;;;;;;6.55;82.66;96930.76;1755588;81;20942;-62
2022/04/02 04:18:10;;;;;;;0.45;0.45;;;;;;;6.54;82.56;96928.33;1755803;81;20971;-64
2022/04/02 04:20:38;;;;;;;0.45;0.45;;;;;;;6.50;82.64;96925.78;1744275;81;21452;-65
2022/04/02 04:23:08;;;;;;;0.70;0.50;;;;;;;6.52;82.50;96936.95;1755437;81;21329;-65
2022/04/02 04:25:35;;;;;;;0.50;0.50;;;;;;;6.50;82.48;96935.03;1756510;81;21504;-63
2022/04/02 04:28:04;;;;;;;0.40;0.40;;;;;;;6.49;82.52;96930.25;1755352;81;20965;-65
2022/04/02 04:30:31;;;;;;;0.50;0.50;;;;;;;6.51;82.59;96936.66;1756194;81;20961;-63
2022/04/02 04:32:59;;;;;;;0.65;0.40;;;;;;;6.49;82.46;96934.74;1754943;81;21445;-65
2022/04/02 04:35:27;;;;;;;0.40;0.40;;;;;;;6.51;82.17;96939.30;1756647;81;22169;-63
2022/04/02 04:37:55;;;;;;;0.37;0.37;;;;;;;6.47;82.12;96944.68;1756281;80;20978;-61
2022/04/02 04:40:24;;;;;;;0.28;0.28;;;;;;;6.50;81.82;96946.41;1755705;80;21111;-64
2022/04/02 04:42:53;;;;;;;0.30;0.30;;;;;;;6.49;81.91;96943.98;1753770;81;21519;-63
2022/04/02 04:45:22;;;;;;;0.20;0.20;;;;;;;6.46;81.99;96949.67;1754204;81;21416;-62
2022/04/02 04:47:51;;;;;;;0.62;0.53;;;;;;;6.49;81.92;96948.73;1755047;81;21171;-64
2022/04/02 04:50:20;;;;;;;0.40;0.40;;;;;;;6.49;81.89;96941.34;1755048;81;21425;-64
2022/04/02 04:52:49;;;;;;;0.30;0.30;;;;;;;6.53;81.44;96939.41;1754903;81;20919;-64
2022/04/02 04:55:17;;;;;;;0.28;0.23;;;;;;;6.48;81.48;96944.99;1756625;81;20978;-63
2022/04/02 04:57:44;;;;;;;0.20;0.20;;;;;;;6.42;81.54;96942.66;1756542;81;21543;-62
2022/04/02 05:00:18;;;;;;;0.50;0.50;;;;;;;6.43;81.51;96933.73;1755606;81;21730;-65
2022/04/02 05:02:47;;;;;;;0.30;0.30;;;;;;;6.40;81.44;96943.38;1755562;81;20986;-61
2022/04/02 05:05:15;;;;;;;0.20;0.20;;;;;;;6.43;81.41;96942.16;1754234;81;21543;-63
2022/04/02 05:07:45;;;;;;;0.37;0.37;;;;;;;6.43;81.26;96947.44;1755454;81;21005;-67
2022/04/02 05:10:14;;;;;;;0.50;0.47;;;;;;;6.35;81.34;96939.22;1756603;81;21552;-63
2022/04/02 05:12:43;;;;;;;0.33;0.33;;;;;;;6.33;81.49;96945.73;1754507;81;21256;-64
2022/04/02 05:15:13;;;;;;;1.15;1.00;;;;;;;6.37;81.66;96948.25;1756636;81;20946;-64
2022/04/02 05:17:43;;;;;;;4.15;3.17;;;;;;;6.37;81.76;96946.92;1756288;81;21041;-64
2022/04/02 05:20:13;;;;;;;4.72;4.22;;;;;;;6.36;82.32;96954.56;1756557;81;20883;-62
2022/04/02 05:22:43;;;;;;;9.43;7.03;;;;;;;6.36;83.41;96955.35;1743354;81;20923;-65
2022/04/02 05:25:11;;;;;;;7.75;5.58;;;;;;;6.34;82.70;96949.47;1756427;81;21878;-64
2022/04/02 05:27:41;;;;;;;5.40;4.75;;;;;;;6.33;82.81;96953.65;1744302;81;20926;-62
2022/04/02 05:30:11;;;;;;;4.42;3.60;;;;;;;6.31;83.72;96957.01;1755379;81;20847;-62
2022/04/02 05:32:40;;;;;;;4.03;3.45;;;;;;;6.31;83.62;96963.61;1714707;83;21441;-63
2022/04/02 05:35:08;;;;;;;2.92;2.37;;;;;;;6.30;83.77;96964.61;1755674;81;20851;-64
2022/04/02 05:37:42;;;;;;;3.25;2.90;;;;;;;6.29;83.73;96962.47;1754563;81;21246;-62
2022/04/02 05:40:11;;;;;;;1.90;1.80;;;;;;;6.27;83.67;96963.19;1722369;82;21412;-63
2022/04/02 05:42:40;;;;;;;1.32;1.22;;;;;;;6.28;86.05;96967.97;1743584;81;21479;-64
2022/04/02 05:45:09;;;;;;;0.68;0.68;;;;;;;6.26;85.52;96972.12;1755670;81;20906;-60
2022/04/02 05:47:46;;;;;;;1.05;0.50;;;;;;;6.27;85.39;96980.86;1743933;81;20978;-64
2022/04/02 05:50:14;;;;;;;0.50;0.50;;;;;;;6.31;84.84;96982.87;1754070;81;21196;-62
2022/04/02 05:52:41;;;;;;;0.72;0.72;;;;;;;6.36;84.45;96975.69;1753825;81;20895;-64
2022/04/02 05:55:14;;;;;;;0.85;0.70;;;;;;;6.38;84.06;96974.97;1752563;81;20903;-64
2022/04/02 05:57:41;;;;;;;0.65;0.50;;;;;;;6.38;84.23;96978.43;1743954;81;21512;-62
2022/04/02 06:00:11;;;;;;;0.40;0.35;;;;;;;6.42;84.32;96980.14;1756302;81;21393;-62
2022/04/02 06:02:43;;;;;;;0.30;0.30;;;;;;;6.43;83.91;96977.81;1744875;81;21369;-65
2022/04/02 06:05:12;;;;;;;0.37;0.37;;;;;;;6.45;83.49;96988.47;1756606;81;21417;-65
2022/04/02 06:07:39;;;;;;;0.85;0.50;;;;;;;6.43;83.76;96989.19;1706390;83;20915;-62
2022/04/02 06:10:09;;;;;;;0.70;0.70;;;;;;;6.44;83.21;96990.80;1756354;80;20978;-62
2022/04/02 06:12:37;;;;;;;1.60;1.50;;;;;;;6.42;83.90;96989.38;1756332;80;21499;-64
2022/04/02 06:15:09;;;;;;;2.10;2.00;;;;;;;6.45;83.53;96991.62;1754872;81;21280;-62
2022/04/02 06:17:36;;;;;;;3.60;3.40;;;;;;;6.45;84.04;96995.08;1755670;81;20939;-63
2022/04/02 06:20:07;;;;;;;2.95;2.75;;;;;;;6.47;83.14;96999.64;1755702;81;21496;-63
2022/04/02 06:22:36;;;;;;;2.20;2.10;;;;;;;6.48;83.39;96993.86;1754844;81;20997;-61
2022/04/02 06:25:05;;;;;;;2.50;2.30;;;;;;;6.52;83.16;96997.70;1756765;81;20993;-66
2022/04/02 06:27:44;;;;;;;1.52;1.40;;;;;;;6.52;82.78;96992.42;1752820;81;21373;-63
2022/04/02 06:30:20;;;;;;;1.62;1.52;;;;;;;6.52;84.00;96997.70;1754010;81;20922;-64
2022/04/02 06:32:47;;;;;;;;;;;;;;;6.51;83.38;96992.95;1714676;82;21242;-65
2022/04/02 06:35:15;;;;;;;2.20;2.00;;;;;;;6.52;83.18;96995.88;1698142;83;20132;-62
2022/04/02 06:37:42;;;;;;;2.62;2.40;;;;;;;6.52;84.62;96997.70;1751247;81;21064;-62
2022/04/02 06:40:11;;;;;;;1.92;1.82;;;;;;;6.52;84.28;97001.16;1755458;81;20836;-61
2022/04/02 06:42:38;;;;;;;2.83;2.62;;;;;;;6.54;84.46;97004.94;1707920;83;20903;-64
2022/04/02 06:45:08;;;;;;;2.98;2.70;;;;;;;6.53;85.09;97006.76;1756152;80;20958;-64
2022/04/02 06:47:35;;;;;;;2.35;2.22;;;;;;;6.54;85.55;97006.25;1754400;81;20938;-64
2022/04/02 06:50:06;;;;;;;1.40;1.30;;;;;;;6.56;85.61;97008.17;1744282;81;20922;-62
2022/04/02 06:52:33;;;;;;;0.88;0.88;;;;;;;6.57;85.18;97011.92;1755327;81;21332;-64
2022/04/02 06:55:01;;;;;;;0.50;0.50;;;;;;;6.61;84.88;97009.70;1755438;80;21401;-61
2022/04/02 06:57:28;;;;;;;0.88;0.88;;;;;;;6.63;84.30;97011.62;1754110;81;21465;-60
2022/04/02 06:59:55;;;;;;;1.40;1.30;;;;;;;6.59;84.04;97019.16;1754190;81;21040;-62
2022/04/02 07:02:23;;;;;;;1.50;1.40;;;;;;;6.57;83.90;97016.42;1744281;80;21084;-67
2022/04/02 07:04:50;;;;;;;1.20;1.10;;;;;;;6.56;83.62;97016.92;1753841;81;21891;-62
2022/04/02 07:07:19;;;;;;;0.65;0.65;;;;;;;6.58;83.26;97010.92;1753339;81;20879;-65
2022/04/02 07:09:47;;;;;;;0.42;0.42;;;;;;;6.58;83.08;97012.73;1755664;81;21021;-63
2022/04/02 07:12:14;;;;;;;0.30;0.30;;;;;;;6.58;82.88;97008.28;1752753;81;21003;-65
2022/04/02 07:14:41;;;;;;;0.50;0.30;;;;;;;6.64;82.77;97014.07;1755651;81;20937;-63
2022/04/02 07:17:10;;;;;;;0.30;0.30;;;;;;;6.70;82.50;97019.05;1753284;81;20879;-64
2022/04/02 07:19:38;;;;;;;0.28;0.28;;;;;;;6.75;82.11;97016.60;1750984;80;21037;-67
2022/04/02 07:22:09;;;;;;;0.10;0.10;;;;;;;6.82;82.29;97016.08;1754165;81;21499;-63
2022/04/02 07:24:40;;;;;;;0.47;0.42;;;;;;;6.82;81.70;97024.00;1744507;81;20990;-64
2022/04/02 07:27:08;;;;;;;0.50;0.50;;;;;;;6.78;81.49;97026.23;1749617;81;20863;-64
2022/04/02 07:29:35;;;;;;;0.45;0.45;;;;;;;6.81;81.12;97028.97;1755061;81;21293;-65
2022/04/02 07:32:07;;;;;;;0.42;0.42;;;;;;;6.89;80.74;97034.05;1753451;81;21549;-61
2022/04/02 07:34:34;;;;;;;0.30;0.30;;;;;;;6.90;80.38;97033.55;1755704;81;20962;-66
2022/04/02 07:37:27;;;;;;;2.70;1.57;;;;;;;6.94;80.20;97033.42;1753512;81;20910;-64
2022/04/02 07:40:15;;;;;;;0.60;0.60;;;;;;;6.99;80.20;97037.08;1744701;81;21006;-65
2022/04/02 07:42:56;;;;;;;0.90;0.90;;;;;;;7.05;80.17;97036.77;1745027;81;22058;-63
2022/04/02 07:45:32;;;;;;;1.05;0.95;;;;;;;7.04;80.30;97039.13;1756227;81;21001;-62
2022/04/02 07:47:59;;;;;;;2.35;0.68;;;;;;;7.08;79.87;97040.32;1755473;81;20942;-63
2022/04/02 07:50:27;;;;;;;0.95;0.80;;;;;;;7.11;79.71;97033.30;1756204;81;20926;-66
2022/04/02 07:52:55;;;;;;;0.60;0.60;;;;;;;7.13;79.86;97036.55;1753912;81;21469;-63
2022/04/02 07:55:24;;;;;;;0.80;0.20;;;;;;;7.19;80.13;97043.66;1720942;82;21242;-63
2022/04/02 07:57:54;;;;;;;0.30;0.30;;;;;;;7.23;79.64;97045.67;1745670;81;20974;-64
2022/04/02 08:00:26;;;;;;;0.55;0.55;;;;;;;7.31;79.40;97046.77;1754630;81;20938;-64
2022/04/02 08:02:52;;;;;;;0.37;0.37;;;;;;;7.37;79.23;97050.42;1756027;81;21436;-64
2022/04/02 08:05:22;;;;;;;1.52;1.42;;;;;;;7.38;80.88;97050.70;1755693;81;20878;-66
2022/04/02 08:07:55;;;;;;;3.42;1.87;;;;;;;7.42;79.81;97051.92;1755474;81;21219;-64
2022/04/02 08:10:27;;;;;;;1.55;1.10;;;;;;;7.39;80.16;97053.16;1743842;81;20997;-64
2022/04/02 08:12:57;;;;;;;0.50;0.50;;;;;;;7.35;80.56;97051.94;1756636;81;21476;-63
2022/04/02 08:15:24;;;;;;;0.40;0.40;;;;;;;7.34;81.46;97061.41;1755206;81;20981;-62
2022/04/02 08:17:54;;;;;;;0.33;0.23;;;;;;;7.31;81.59;97061.81;1754369;81;20939;-62
2022/04/02 08:20:22;;;;;;;0.40;0.40;;;;;;;7.34;82.21;97061.41;1736564;81;21149;-64
2022/04/02 08:22:51;;;;;;;1.55;0.50;;;;;;;7.38;82.21;97065.25;1727053;82;20880;-65
2022/04/02 08:25:22;;;;;;;0.55;0.40;;;;;;;7.45;81.23;97066.06;1735676;82;20931;-66
2022/04/02 08:28:25;;;;;;;0.30;0.30;;;;;;;7.52;80.73;97066.84;1736017;82;21459;-65
2022/04/02 08:31:21;;;;;;;0.35;0.35;;;;;;;7.57;80.28;97070.17;1649556;85;21109;-63
2022/04/02 08:33:59;;;;;;;0.42;0.40;;;;;;;7.59;79.84;97072.09;1657206;85;21351;-62
2022/04/02 08:36:47;;;;;;;0.45;0.40;;;;;;;7.68;80.05;97073.50;1716168;82;20946;-65
2022/04/02 08:39:46;;;;;;;0.50;0.50;;;;;;;7.70;79.94;97074.92;1735841;82;20911;-62
2022/04/02 08:43:08;;;;;;;0.78;0.40;;;;;;;7.74;79.07;97075.32;1641201;82;21042;-65
2022/04/02 08:45:37;;;;;;;0.50;0.50;;;;;;;7.78;78.70;97078.65;1735823;82;21030;-62
2022/04/02 08:48:28;;;;;;;0.55;0.42;;;;;;;7.90;78.40;97074.31;1713628;83;21837;-63
2022/04/02 08:51:15;;;;;;;0.65;0.60;;;;;;;7.96;78.18;97078.77;1728201;82;20946;-63
2022/04/02 08:54:05;;;;;;;1.53;0.63;;;;;;;7.99;77.43;97074.37;1736276;82;21334;-63
2022/04/02 08:56:38;;;;;;;1.00;0.50;;;;;;;8.03;77.13;97075.56;1719240;82;21611;-64
2022/04/02 08:59:11;;;;;;;0.62;0.60;;;;;;;8.09;76.49;97087.15;1735819;82;21550;-62
2022/04/02 09:02:07;;;;;;;0.75;0.50;;;;;;;8.10;76.82;97091.44;1724224;82;21476;-63
2022/04/02 09:05:15;;;;;;;0.47;0.47;;;;;;;8.17;76.62;97089.55;1702007;82;20994;-62
2022/04/02 09:08:00;;;;;;;1.47;0.62;;;;;;;8.25;76.23;97087.98;1735532;82;21029;-64
2022/04/02 09:11:16;;;;;;;0.60;0.60;;;;;;;8.28;75.84;97091.56;1735296;82;20945;-63
2022/04/02 09:14:05;;;;;;;0.90;0.90;;;;;;;8.32;75.29;97088.77;1725885;82;21033;-65
2022/04/02 09:16:57;;;;;;;0.75;0.72;;;;;;;8.38;75.36;97093.73;1735871;82;21888;-64
2022/04/02 09:19:38;;;;;;;0.90;0.60;;;;;;;8.41;74.74;97090.16;1733194;81;20943;-61
2022/04/02 09:22:28;;;;;;;0.90;0.70;;;;;;;8.37;74.02;97095.56;1726926;82;20982;-65
2022/04/02 09:25:20;;;;;;;0.70;0.70;;;;;;;8.39;73.89;97100.16;1727907;82;20978;-62
2022/04/02 09:28:11;;;;;;;1.12;1.02;;;;;;;8.42;73.47;97101.03;1727920;82;20876;-64
2022/04/02 09:31:34;;;;;;;2.58;1.10;;;;;;;8.43;73.29;97096.05;1728236;82;21247;-63
2022/04/02 09:34:49;;;;;;;0.62;0.62;;;;;;;8.43;72.43;97102.67;1727585;82;20938;-65
2022/04/02 09:37:48;;;;;;;1.00;1.00;;;;;;;8.37;72.22;97106.16;1727797;82;20903;-63
2022/04/02 09:40:16;;;;;;;1.30;1.17;;;;;;;8.32;71.95;97109.97;1696475;82;21524;-62
2022/04/02 09:42:46;;;;;;;1.10;1.00;;;;;;;8.26;72.78;97110.80;1727664;82;21049;-61
2022/04/02 09:45:18;;;;;;;0.90;0.90;;;;;;;8.22;73.00;97113.56;1727985;82;21821;-64
2022/04/02 09:48:10;;;;;;;1.10;1.00;;;;;;;8.17;73.05;97105.44;1727557;82;20993;-62
2022/04/02 09:50:39;;;;;;;1.25;0.60;;;;;;;8.18;73.05;97113.70;1681992;82;20943;-63
2022/04/02 09:53:27;;;;;;;1.15;1.05;;;;;;;8.15;73.21;97114.63;1727749;82;20939;-64
2022/04/02 09:56:19;;;;;;;1.67;1.20;;;;;;;8.13;72.89;97114.85;1727810;82;21010;-64
2022/04/02 09:59:14;;;;;;;1.27;1.12;;;;;;;8.11;72.87;97111.58;1727922;82;20938;-61
2022/04/02 10:02:06;;;;;;;1.40;1.30;;;;;;;8.15;72.87;97111.47;1677572;82;21066;-60
2022/04/02 10:04:50;;;;;;;1.47;1.35;;;;;;;8.15;73.05;97111.47;1727904;82;21073;-62
2022/04/02 10:07:32;;;;;;;1.17;1.00;;;;;;;8.20;72.99;97109.50;1726964;82;20982;-63
2022/04/02 10:09:59;;;;;;;0.95;0.90;;;;;;;8.19;72.30;97120.60;1727566;82;20942;-62
2022/04/02 10:12:29;;;;;;;2.20;1.10;;;;;;;8.20;71.80;97122.74;1727883;82;22359;-66
2022/04/02 10:14:58;;;;;;;0.85;0.85;;;;;;;8.20;72.05;97118.27;1727803;82;21046;-62
2022/04/02 10:17:30;;;;;;;3.90;1.35;;;;;;;8.26;72.25;97116.61;1727748;82;21508;-63
2022/04/02 10:19:58;;;;;;;1.20;1.10;;;;;;;8.22;71.64;97120.19;1739321;81;21583;-64
2022/04/02 10:22:38;;;;;;;0.98;0.85;;;;;;;8.26;71.70;97124.05;1756772;81;20950;-63
2022/04/02 10:25:08;;;;;;;0.57;0.55;;;;;;;8.33;71.36;97124.84;1754267;81;21198;-64
2022/04/02 10:27:36;;;;;;;0.70;0.70;;;;;;;8.43;71.19;97123.86;1756281;81;20942;-63
2022/04/02 10:30:14;;;;;;;1.17;0.88;;;;;;;8.51;70.80;97130.23;1754897;81;21013;-64
2022/04/02 10:35:44;;;;;;;3.62;2.27;;;;;;;8.64;70.71;97130.66;1755691;80;21629;-63
2022/04/02 10:38:15;;;;;;;3.22;2.60;;;;;;;8.62;70.08;97132.22;1722432;82;21249;-63
2022/04/02 10:40:48;;;;;;;4.60;2.90;;;;;;;8.56;69.72;97137.03;1742256;81;21562;-64
2022/04/02 10:43:27;;;;;;;6.33;3.27;;;;;;;8.52;69.41;97135.85;1755908;81;21040;-63
2022/04/02 10:45:56;;;;;;;3.90;1.90;;;;;;;8.43;69.45;97137.11;1755707;81;21002;-63
2022/04/02 10:48:34;;;;;;;2.25;1.62;;;;;;;8.39;69.25;97143.06;1756558;81;20970;-62
2022/04/02 10:51:02;;;;;;;5.35;4.80;;;;;;;8.36;69.12;97143.48;1756156;81;21232;-65
2022/04/02 10:53:31;;;;;;;2.85;2.37;;;;;;;8.38;69.36;97146.72;1756072;81;21540;-64
2022/04/02 10:56:02;;;;;;;1.70;1.60;;;;;;;8.38;69.37;97147.54;1756416;81;20987;-65
2022/04/02 10:58:34;;;;;;;1.52;1.42;;;;;;;8.45;69.59;97143.01;1756075;81;21738;-64
2022/04/02 11:01:03;;;;;;;1.50;1.40;;;;;;;8.47;70.01;97148.11;1690268;84;20995;-64
2022/04/02 11:03:39;;;;;;;1.72;1.60;;;;;;;8.51;70.13;97143.48;1755808;81;21240;-64
2022/04/02 11:06:07;;;;;;;1.62;1.52;;;;;;;8.56;69.87;97147.64;1756119;81;20978;-66
2022/04/02 11:08:35;;;;;;;2.20;1.60;;;;;;;8.62;69.52;97144.14;1755304;81;20989;-66
2022/04/02 11:11:27;;;;;;;1.62;1.50;;;;;;;8.59;69.60;97150.37;1755548;81;21583;-62
2022/04/02 11:14:03;;;;;;;3.45;2.70;;;;;;;8.63;69.65;97150.23;1755808;81;21500;-67
2022/04/02 11:16:41;;;;;;;3.75;2.95;;;;;;;8.63;69.45;97152.88;1756032;81;21969;-64
2022/04/02 11:22:09;;;;;;;3.83;2.50;;;;;;;8.61;68.84;97155.75;1756833;81;21488;-65
2022/04/02 11:25:03;;;;;;;2.40;2.20;;;;;;;8.62;69.00;97163.20;1756411;81;21577;-66
2022/04/02 11:27:35;;;;;;;2.95;2.60;;;;;;;8.63;68.93;97168.27;1690809;81;21000;-64
2022/04/02 11:30:07;;;;;;;3.62;3.27;;;;;;;8.56;68.80;97168.83;1720687;82;21261;-63
2022/04/02 11:32:46;;;;;;;2.95;2.12;;;;;;;8.49;68.95;97173.37;1754312;81;21010;-65
2022/04/02 11:35:22;;;;;;;2.40;2.20;;;;;;;8.44;68.97;97173.70;1756246;81;20978;-64
2022/04/02 11:38:09;;;;;;;4.03;2.40;;;;;;;8.37;68.89;97176.37;1756618;81;21553;-64
2022/04/02 11:40:41;;;;;;;1.80;1.55;;;;;;;8.29;69.38;97173.96;1744639;81;20970;-63
2022/04/02 11:43:08;;;;;;;1.95;1.27;;;;;;;8.33;69.91;97172.53;1756469;81;21282;-64
2022/04/02 11:45:36;;;;;;;1.10;1.00;;;;;;;8.31;70.17;97173.27;1755721;81;21011;-65
2022/04/02 11:48:12;;;;;;;4.45;3.92;;;;;;;8.30;70.26;97170.80;1756533;81;20982;-64
2022/04/02 11:50:46;;;;;;;10.55;8.63;;;;;;;8.24;69.63;97168.45;1744554;81;20958;-64
2022/04/02 11:53:12;;;;;;;13.50;11.30;;;;;;;8.13;69.45;97177.59;1718790;83;20860;-62
2022/04/02 11:55:40;;;;;;;9.38;8.38;;;;;;;8.06;69.88;97174.45;1743507;81;21260;-62
2022/04/02 11:58:12;;;;;;;11.75;10.58;;;;;;;8.06;70.29;97169.66;1755868;81;20891;-64
2022/04/02 12:00:41;;;;;;;5.35;4.85;;;;;;;8.11;70.47;97183.61;1754979;81;20942;-63
2022/04/02 12:03:27;;;;;;;3.40;3.10;;;;;;;8.16;70.25;97179.28;1756501;81;20870;-65
2022/04/02 12:05:54;;;;;;;1.92;1.82;;;;;;;8.18;70.52;97177.27;1747937;81;21061;-63
2022/04/02 12:08:32;;;;;;;1.35;1.25;;;;;;;8.23;70.98;97176.12;1756779;81;21406;-64
2022/04/02 12:11:00;;;;;;;1.45;1.22;;;;;;;8.27;70.67;97182.64;1756867;81;20914;-64
2022/04/02 12:13:27;;;;;;;4.17;2.85;;;;;;;8.23;70.03;97189.87;1756724;81;21504;-61
2022/04/02 12:16:13;;;;;;;1.27;1.15;;;;;;;8.18;69.78;97184.39;1755733;81;20942;-64